sensor_id;sensor_type;location;lat;lon;timestamp;P1;durP1;ratioP1;P2;durP2;ratioP2
33022;SDS011;19390;51.460;5.710;2023-10-09T00:00:30;31.42;;;21.08;;
33022;SDS011;19390;51.460;5.710;2023-10-09T00:03:05;32.60;;;19.35;;
33022;SDS011;19390;51.460;5.710;2023-10-09T00:05:32;44.60;;;21.00;;
33022;SDS011;19390;51.460;5.710;2023-10-09T00:08:04;36.65;;;20.13;;
33022;SDS011;19390;51.460;5.710;2023-10-09T00:10:29;36.38;;;20.75;;
33022;SDS011;19390;51.460;5.710;2023-10-09T00:13:03;35.00;;;20.23;;
33022;SDS011;19390;51.460;5.710;2023-10-09T00:15:29;34.72;;;20.92;;
33022;SDS011;19390;51.460;5.710;2023-10-09T00:17:58;34.90;;;20.58;;
33022;SDS011;19390;51.460;5.710;2023-10-09T00:20:24;32.70;;;19.38;;
33022;SDS011;19390;51.460;5.710;2023-10-09T00:23:03;31.23;;;19.85;;
33022;SDS011;19390;51.460;5.710;2023-10-09T00:25:37;34.53;;;18.58;;
33022;SDS011;19390;51.460;5.710;2023-10-09T00:28:09;34.57;;;19.93;;
33022;SDS011;19390;51.460;5.710;2023-10-09T00:30:40;32.33;;;19.48;;
33022;SDS011;19390;51.460;5.710;2023-10-09T00:33:06;33.35;;;17.90;;
33022;SDS011;19390;51.460;5.710;2023-10-09T00:35:36;32.17;;;18.73;;
33022;SDS011;19390;51.460;5.710;2023-10-09T00:38:06;32.33;;;18.05;;
33022;SDS011;19390;51.460;5.710;2023-10-09T00:40:39;29.20;;;18.20;;
33022;SDS011;19390;51.460;5.710;2023-10-09T00:43:12;31.15;;;18.02;;
33022;SDS011;19390;51.460;5.710;2023-10-09T00:45:41;31.85;;;18.38;;
33022;SDS011;19390;51.460;5.710;2023-10-09T00:48:09;26.73;;;17.33;;
33022;SDS011;19390;51.460;5.710;2023-10-09T00:50:39;33.50;;;18.40;;
33022;SDS011;19390;51.460;5.710;2023-10-09T00:53:11;27.65;;;16.63;;
33022;SDS011;19390;51.460;5.710;2023-10-09T00:55:43;27.42;;;16.75;;
33022;SDS011;19390;51.460;5.710;2023-10-09T00:58:14;25.45;;;16.15;;
33022;SDS011;19390;51.460;5.710;2023-10-09T01:00:48;28.83;;;16.52;;
33022;SDS011;19390;51.460;5.710;2023-10-09T01:03:17;29.50;;;17.02;;
33022;SDS011;19390;51.460;5.710;2023-10-09T01:08:40;26.00;;;15.63;;
33022;SDS011;19390;51.460;5.710;2023-10-09T01:11:06;29.17;;;15.32;;
33022;SDS011;19390;51.460;5.710;2023-10-09T01:13:35;25.15;;;15.55;;
33022;SDS011;19390;51.460;5.710;2023-10-09T01:16:18;24.33;;;14.65;;
33022;SDS011;19390;51.460;5.710;2023-10-09T01:21:15;27.63;;;17.10;;
33022;SDS011;19390;51.460;5.710;2023-10-09T01:23:42;25.65;;;15.25;;
33022;SDS011;19390;51.460;5.710;2023-10-09T01:26:27;30.13;;;15.93;;
33022;SDS011;19390;51.460;5.710;2023-10-09T01:28:57;28.45;;;16.35;;
33022;SDS011;19390;51.460;5.710;2023-10-09T01:31:25;23.83;;;15.60;;
33022;SDS011;19390;51.460;5.710;2023-10-09T01:33:52;27.83;;;14.73;;
33022;SDS011;19390;51.460;5.710;2023-10-09T01:36:19;29.00;;;15.70;;
33022;SDS011;19390;51.460;5.710;2023-10-09T01:38:56;25.40;;;15.18;;
33022;SDS011;19390;51.460;5.710;2023-10-09T01:41:46;24.52;;;15.70;;
33022;SDS011;19390;51.460;5.710;2023-10-09T01:44:13;22.63;;;14.90;;
33022;SDS011;19390;51.460;5.710;2023-10-09T01:46:41;24.58;;;15.55;;
33022;SDS011;19390;51.460;5.710;2023-10-09T01:49:07;22.38;;;15.52;;
33022;SDS011;19390;51.460;5.710;2023-10-09T01:51:42;30.42;;;15.00;;
33022;SDS011;19390;51.460;5.710;2023-10-09T01:54:07;23.42;;;14.48;;
33022;SDS011;19390;51.460;5.710;2023-10-09T01:56:34;20.55;;;14.93;;
33022;SDS011;19390;51.460;5.710;2023-10-09T01:59:03;24.30;;;15.02;;
33022;SDS011;19390;51.460;5.710;2023-10-09T02:01:31;24.20;;;14.43;;
33022;SDS011;19390;51.460;5.710;2023-10-09T02:03:58;29.38;;;15.45;;
33022;SDS011;19390;51.460;5.710;2023-10-09T02:06:30;25.47;;;14.23;;
33022;SDS011;19390;51.460;5.710;2023-10-09T02:08:57;23.13;;;14.70;;
33022;SDS011;19390;51.460;5.710;2023-10-09T02:11:24;22.92;;;14.98;;
33022;SDS011;19390;51.460;5.710;2023-10-09T02:14:10;24.05;;;14.73;;
33022;SDS011;19390;51.460;5.710;2023-10-09T02:16:48;23.48;;;14.48;;
33022;SDS011;19390;51.460;5.710;2023-10-09T02:19:34;20.80;;;14.20;;
33022;SDS011;19390;51.460;5.710;2023-10-09T02:22:03;23.05;;;15.98;;
33022;SDS011;19390;51.460;5.710;2023-10-09T02:24:39;27.35;;;14.13;;
33022;SDS011;19390;51.460;5.710;2023-10-09T02:27:14;23.92;;;14.43;;
33022;SDS011;19390;51.460;5.710;2023-10-09T02:29:45;20.70;;;13.68;;
33022;SDS011;19390;51.460;5.710;2023-10-09T02:32:12;21.77;;;13.13;;
33022;SDS011;19390;51.460;5.710;2023-10-09T02:34:51;25.30;;;14.50;;
33022;SDS011;19390;51.460;5.710;2023-10-09T02:37:19;21.73;;;13.60;;
33022;SDS011;19390;51.460;5.710;2023-10-09T02:39:48;32.90;;;15.18;;
33022;SDS011;19390;51.460;5.710;2023-10-09T02:42:17;23.60;;;14.65;;
33022;SDS011;19390;51.460;5.710;2023-10-09T02:44:53;22.00;;;13.98;;
33022;SDS011;19390;51.460;5.710;2023-10-09T02:47:20;20.85;;;14.18;;
33022;SDS011;19390;51.460;5.710;2023-10-09T02:49:50;22.63;;;14.20;;
33022;SDS011;19390;51.460;5.710;2023-10-09T02:52:16;22.45;;;13.48;;
33022;SDS011;19390;51.460;5.710;2023-10-09T02:54:51;26.83;;;13.95;;
33022;SDS011;19390;51.460;5.710;2023-10-09T02:57:25;21.33;;;13.27;;
33022;SDS011;19390;51.460;5.710;2023-10-09T02:59:53;22.00;;;14.13;;
33022;SDS011;19390;51.460;5.710;2023-10-09T03:02:19;23.50;;;14.38;;
33022;SDS011;19390;51.460;5.710;2023-10-09T03:04:44;19.83;;;13.73;;
33022;SDS011;19390;51.460;5.710;2023-10-09T03:07:10;23.27;;;14.27;;
33022;SDS011;19390;51.460;5.710;2023-10-09T03:09:38;24.88;;;14.73;;
33022;SDS011;19390;51.460;5.710;2023-10-09T03:12:06;20.27;;;13.18;;
33022;SDS011;19390;51.460;5.710;2023-10-09T03:14:35;22.27;;;13.70;;
33022;SDS011;19390;51.460;5.710;2023-10-09T03:17:03;21.13;;;13.68;;
33022;SDS011;19390;51.460;5.710;2023-10-09T03:19:30;26.02;;;14.60;;
33022;SDS011;19390;51.460;5.710;2023-10-09T03:22:02;22.88;;;14.02;;
33022;SDS011;19390;51.460;5.710;2023-10-09T03:24:35;24.33;;;15.27;;
33022;SDS011;19390;51.460;5.710;2023-10-09T03:27:02;24.63;;;15.60;;
33022;SDS011;19390;51.460;5.710;2023-10-09T03:29:28;22.65;;;14.95;;
33022;SDS011;19390;51.460;5.710;2023-10-09T03:31:53;24.80;;;14.55;;
33022;SDS011;19390;51.460;5.710;2023-10-09T03:34:21;19.52;;;15.15;;
33022;SDS011;19390;51.460;5.710;2023-10-09T03:36:46;25.83;;;14.95;;
33022;SDS011;19390;51.460;5.710;2023-10-09T03:39:13;23.73;;;14.02;;
33022;SDS011;19390;51.460;5.710;2023-10-09T03:41:57;24.10;;;14.77;;
33022;SDS011;19390;51.460;5.710;2023-10-09T03:44:30;25.00;;;14.83;;
33022;SDS011;19390;51.460;5.710;2023-10-09T03:47:01;25.17;;;13.32;;
33022;SDS011;19390;51.460;5.710;2023-10-09T03:49:27;26.60;;;14.05;;
33022;SDS011;19390;51.460;5.710;2023-10-09T03:51:54;24.38;;;15.07;;
33022;SDS011;19390;51.460;5.710;2023-10-09T03:54:20;24.40;;;13.93;;
33022;SDS011;19390;51.460;5.710;2023-10-09T03:56:47;21.52;;;13.93;;
33022;SDS011;19390;51.460;5.710;2023-10-09T03:59:18;23.85;;;14.32;;
33022;SDS011;19390;51.460;5.710;2023-10-09T04:01:47;23.52;;;13.88;;
33022;SDS011;19390;51.460;5.710;2023-10-09T04:04:18;20.33;;;13.57;;
33022;SDS011;19390;51.460;5.710;2023-10-09T04:06:47;23.67;;;13.43;;
33022;SDS011;19390;51.460;5.710;2023-10-09T04:09:13;23.05;;;13.15;;
33022;SDS011;19390;51.460;5.710;2023-10-09T04:11:45;20.88;;;13.70;;
33022;SDS011;19390;51.460;5.710;2023-10-09T04:14:15;21.90;;;13.95;;
33022;SDS011;19390;51.460;5.710;2023-10-09T04:16:51;23.30;;;13.23;;
33022;SDS011;19390;51.460;5.710;2023-10-09T04:19:17;25.70;;;14.02;;
33022;SDS011;19390;51.460;5.710;2023-10-09T04:21:47;22.45;;;13.88;;
33022;SDS011;19390;51.460;5.710;2023-10-09T04:24:13;29.13;;;14.02;;
33022;SDS011;19390;51.460;5.710;2023-10-09T04:26:42;25.52;;;14.80;;
33022;SDS011;19390;51.460;5.710;2023-10-09T04:29:10;23.80;;;14.73;;
33022;SDS011;19390;51.460;5.710;2023-10-09T04:31:55;22.48;;;14.93;;
33022;SDS011;19390;51.460;5.710;2023-10-09T04:34:22;23.27;;;14.13;;
33022;SDS011;19390;51.460;5.710;2023-10-09T04:36:49;23.75;;;14.75;;
33022;SDS011;19390;51.460;5.710;2023-10-09T04:39:16;28.17;;;15.70;;
33022;SDS011;19390;51.460;5.710;2023-10-09T04:42:01;28.73;;;15.88;;
33022;SDS011;19390;51.460;5.710;2023-10-09T04:44:51;22.48;;;15.02;;
33022;SDS011;19390;51.460;5.710;2023-10-09T04:47:29;26.55;;;15.60;;
33022;SDS011;19390;51.460;5.710;2023-10-09T04:50:10;24.67;;;14.93;;
33022;SDS011;19390;51.460;5.710;2023-10-09T04:52:40;23.10;;;14.50;;
33022;SDS011;19390;51.460;5.710;2023-10-09T04:55:06;25.50;;;16.20;;
33022;SDS011;19390;51.460;5.710;2023-10-09T04:57:36;24.45;;;16.63;;
33022;SDS011;19390;51.460;5.710;2023-10-09T05:02:49;22.05;;;15.57;;
33022;SDS011;19390;51.460;5.710;2023-10-09T05:05:23;24.92;;;16.08;;
33022;SDS011;19390;51.460;5.710;2023-10-09T05:08:15;29.35;;;15.82;;
33022;SDS011;19390;51.460;5.710;2023-10-09T05:10:45;22.17;;;14.75;;
33022;SDS011;19390;51.460;5.710;2023-10-09T05:13:32;25.80;;;14.80;;
33022;SDS011;19390;51.460;5.710;2023-10-09T05:18:50;25.92;;;16.42;;
33022;SDS011;19390;51.460;5.710;2023-10-09T05:21:25;25.65;;;16.15;;
33022;SDS011;19390;51.460;5.710;2023-10-09T05:23:55;27.90;;;15.27;;
33022;SDS011;19390;51.460;5.710;2023-10-09T05:26:37;26.33;;;16.10;;
33022;SDS011;19390;51.460;5.710;2023-10-09T05:29:15;24.77;;;16.25;;
33022;SDS011;19390;51.460;5.710;2023-10-09T05:31:47;32.50;;;17.05;;
33022;SDS011;19390;51.460;5.710;2023-10-09T05:34:30;27.52;;;17.65;;
33022;SDS011;19390;51.460;5.710;2023-10-09T05:37:02;27.85;;;17.98;;
33022;SDS011;19390;51.460;5.710;2023-10-09T05:39:48;29.67;;;16.50;;
33022;SDS011;19390;51.460;5.710;2023-10-09T05:42:43;24.05;;;17.02;;
33022;SDS011;19390;51.460;5.710;2023-10-09T05:45:22;32.55;;;17.05;;
33022;SDS011;19390;51.460;5.710;2023-10-09T05:48:06;28.00;;;17.45;;
33022;SDS011;19390;51.460;5.710;2023-10-09T05:50:52;29.58;;;17.05;;
33022;SDS011;19390;51.460;5.710;2023-10-09T05:53:23;26.08;;;17.10;;
33022;SDS011;19390;51.460;5.710;2023-10-09T05:56:07;28.67;;;18.08;;
33022;SDS011;19390;51.460;5.710;2023-10-09T05:58:51;31.60;;;16.67;;
33022;SDS011;19390;51.460;5.710;2023-10-09T06:01:35;28.75;;;17.73;;
33022;SDS011;19390;51.460;5.710;2023-10-09T06:04:19;30.00;;;17.65;;
33022;SDS011;19390;51.460;5.710;2023-10-09T06:06:45;34.58;;;18.33;;
33022;SDS011;19390;51.460;5.710;2023-10-09T06:09:14;30.42;;;17.77;;
33022;SDS011;19390;51.460;5.710;2023-10-09T06:11:46;26.88;;;17.00;;
33022;SDS011;19390;51.460;5.710;2023-10-09T06:14:14;29.80;;;18.27;;
33022;SDS011;19390;51.460;5.710;2023-10-09T06:16:50;24.92;;;17.85;;
33022;SDS011;19390;51.460;5.710;2023-10-09T06:19:42;29.37;;;17.97;;
33022;SDS011;19390;51.460;5.710;2023-10-09T06:22:08;28.02;;;18.00;;
33022;SDS011;19390;51.460;5.710;2023-10-09T06:24:37;29.60;;;18.50;;
33022;SDS011;19390;51.460;5.710;2023-10-09T06:27:07;29.67;;;17.75;;
33022;SDS011;19390;51.460;5.710;2023-10-09T06:29:39;28.98;;;17.52;;
33022;SDS011;19390;51.460;5.710;2023-10-09T06:32:09;30.63;;;18.27;;
33022;SDS011;19390;51.460;5.710;2023-10-09T06:34:48;32.70;;;20.08;;
33022;SDS011;19390;51.460;5.710;2023-10-09T06:37:20;33.47;;;18.65;;
33022;SDS011;19390;51.460;5.710;2023-10-09T06:39:52;31.30;;;18.75;;
33022;SDS011;19390;51.460;5.710;2023-10-09T06:42:25;29.65;;;17.42;;
33022;SDS011;19390;51.460;5.710;2023-10-09T06:45:04;31.33;;;18.65;;
33022;SDS011;19390;51.460;5.710;2023-10-09T06:47:47;31.63;;;18.15;;
33022;SDS011;19390;51.460;5.710;2023-10-09T06:50:33;29.92;;;19.42;;
33022;SDS011;19390;51.460;5.710;2023-10-09T06:53:23;26.10;;;17.55;;
33022;SDS011;19390;51.460;5.710;2023-10-09T06:56:11;30.40;;;18.60;;
33022;SDS011;19390;51.460;5.710;2023-10-09T06:58:48;33.60;;;18.90;;
33022;SDS011;19390;51.460;5.710;2023-10-09T07:01:19;31.23;;;19.58;;
33022;SDS011;19390;51.460;5.710;2023-10-09T07:03:50;32.20;;;20.55;;
33022;SDS011;19390;51.460;5.710;2023-10-09T07:06:19;31.23;;;18.38;;
33022;SDS011;19390;51.460;5.710;2023-10-09T07:14:08;31.45;;;19.20;;
33022;SDS011;19390;51.460;5.710;2023-10-09T07:19:40;28.15;;;17.77;;
33022;SDS011;19390;51.460;5.710;2023-10-09T07:22:07;30.50;;;18.27;;
33022;SDS011;19390;51.460;5.710;2023-10-09T07:24:46;34.22;;;18.50;;
33022;SDS011;19390;51.460;5.710;2023-10-09T07:27:19;29.42;;;18.08;;
33022;SDS011;19390;51.460;5.710;2023-10-09T07:30:05;31.48;;;19.25;;
33022;SDS011;19390;51.460;5.710;2023-10-09T07:32:57;29.08;;;17.58;;
33022;SDS011;19390;51.460;5.710;2023-10-09T07:35:49;29.52;;;17.52;;
33022;SDS011;19390;51.460;5.710;2023-10-09T07:38:22;29.15;;;16.88;;
33022;SDS011;19390;51.460;5.710;2023-10-09T07:40:53;31.35;;;17.40;;
33022;SDS011;19390;51.460;5.710;2023-10-09T07:43:36;27.60;;;17.80;;
33022;SDS011;19390;51.460;5.710;2023-10-09T07:46:16;27.33;;;16.55;;
33022;SDS011;19390;51.460;5.710;2023-10-09T07:48:55;26.25;;;17.13;;
33022;SDS011;19390;51.460;5.710;2023-10-09T07:51:22;29.73;;;17.75;;
33022;SDS011;19390;51.460;5.710;2023-10-09T07:53:56;29.15;;;17.08;;
33022;SDS011;19390;51.460;5.710;2023-10-09T07:56:34;27.10;;;16.77;;
33022;SDS011;19390;51.460;5.710;2023-10-09T07:59:18;28.63;;;18.77;;
33022;SDS011;19390;51.460;5.710;2023-10-09T08:01:45;30.52;;;18.63;;
33022;SDS011;19390;51.460;5.710;2023-10-09T08:04:23;31.80;;;19.35;;
33022;SDS011;19390;51.460;5.710;2023-10-09T08:07:09;32.97;;;18.35;;
33022;SDS011;19390;51.460;5.710;2023-10-09T08:09:44;30.17;;;19.23;;
33022;SDS011;19390;51.460;5.710;2023-10-09T08:12:36;32.28;;;19.55;;
33022;SDS011;19390;51.460;5.710;2023-10-09T08:15:02;27.42;;;18.85;;
33022;SDS011;19390;51.460;5.710;2023-10-09T08:17:47;25.45;;;17.30;;
33022;SDS011;19390;51.460;5.710;2023-10-09T08:20:27;32.25;;;18.15;;
33022;SDS011;19390;51.460;5.710;2023-10-09T08:23:01;28.55;;;18.23;;
33022;SDS011;19390;51.460;5.710;2023-10-09T08:25:30;30.85;;;19.13;;
33022;SDS011;19390;51.460;5.710;2023-10-09T08:27:59;29.35;;;17.55;;
33022;SDS011;19390;51.460;5.710;2023-10-09T08:30:45;27.67;;;16.65;;
33022;SDS011;19390;51.460;5.710;2023-10-09T08:33:37;29.47;;;18.13;;
33022;SDS011;19390;51.460;5.710;2023-10-09T08:36:06;30.75;;;18.80;;
33022;SDS011;19390;51.460;5.710;2023-10-09T08:38:39;28.42;;;17.52;;
33022;SDS011;19390;51.460;5.710;2023-10-09T08:41:08;30.23;;;18.55;;
33022;SDS011;19390;51.460;5.710;2023-10-09T08:43:47;31.45;;;19.13;;
33022;SDS011;19390;51.460;5.710;2023-10-09T08:46:15;30.05;;;19.38;;
33022;SDS011;19390;51.460;5.710;2023-10-09T08:48:46;31.05;;;18.70;;
33022;SDS011;19390;51.460;5.710;2023-10-09T08:51:13;30.80;;;17.35;;
33022;SDS011;19390;51.460;5.710;2023-10-09T08:53:39;28.30;;;18.38;;
33022;SDS011;19390;51.460;5.710;2023-10-09T08:56:10;31.52;;;18.50;;
33022;SDS011;19390;51.460;5.710;2023-10-09T08:58:47;31.55;;;18.08;;
33022;SDS011;19390;51.460;5.710;2023-10-09T09:01:22;29.75;;;18.17;;
33022;SDS011;19390;51.460;5.710;2023-10-09T09:03:49;28.65;;;17.42;;
33022;SDS011;19390;51.460;5.710;2023-10-09T09:06:19;26.20;;;16.77;;
33022;SDS011;19390;51.460;5.710;2023-10-09T09:08:45;27.65;;;16.85;;
33022;SDS011;19390;51.460;5.710;2023-10-09T09:11:17;24.75;;;17.13;;
33022;SDS011;19390;51.460;5.710;2023-10-09T09:13:48;25.60;;;16.55;;
33022;SDS011;19390;51.460;5.710;2023-10-09T09:16:29;25.40;;;15.57;;
33022;SDS011;19390;51.460;5.710;2023-10-09T09:18:56;26.55;;;15.57;;
33022;SDS011;19390;51.460;5.710;2023-10-09T09:21:41;26.83;;;15.68;;
33022;SDS011;19390;51.460;5.710;2023-10-09T09:24:10;26.25;;;16.58;;
33022;SDS011;19390;51.460;5.710;2023-10-09T09:26:57;23.15;;;15.65;;
33022;SDS011;19390;51.460;5.710;2023-10-09T09:29:39;22.13;;;14.13;;
33022;SDS011;19390;51.460;5.710;2023-10-09T09:32:09;25.20;;;15.40;;
33022;SDS011;19390;51.460;5.710;2023-10-09T09:34:46;27.45;;;14.95;;
33022;SDS011;19390;51.460;5.710;2023-10-09T09:37:24;20.83;;;13.35;;
33022;SDS011;19390;51.460;5.710;2023-10-09T09:39:53;23.83;;;14.40;;
33022;SDS011;19390;51.460;5.710;2023-10-09T09:42:21;25.40;;;15.02;;
33022;SDS011;19390;51.460;5.710;2023-10-09T09:44:52;23.55;;;13.05;;
33022;SDS011;19390;51.460;5.710;2023-10-09T09:47:18;22.73;;;14.20;;
33022;SDS011;19390;51.460;5.710;2023-10-09T09:49:52;24.77;;;15.15;;
33022;SDS011;19390;51.460;5.710;2023-10-09T09:52:25;30.27;;;16.20;;
33022;SDS011;19390;51.460;5.710;2023-10-09T09:54:52;26.35;;;15.30;;
33022;SDS011;19390;51.460;5.710;2023-10-09T09:57:18;24.88;;;15.38;;
33022;SDS011;19390;51.460;5.710;2023-10-09T09:59:51;26.15;;;15.52;;
33022;SDS011;19390;51.460;5.710;2023-10-09T10:02:32;23.73;;;14.75;;
33022;SDS011;19390;51.460;5.710;2023-10-09T10:05:04;25.40;;;15.05;;
33022;SDS011;19390;51.460;5.710;2023-10-09T10:07:36;22.80;;;14.95;;
33022;SDS011;19390;51.460;5.710;2023-10-09T10:13:14;24.38;;;16.95;;
33022;SDS011;19390;51.460;5.710;2023-10-09T10:19:18;21.02;;;14.80;;
33022;SDS011;19390;51.460;5.710;2023-10-09T10:21:43;26.98;;;17.05;;
33022;SDS011;19390;51.460;5.710;2023-10-09T10:29:43;26.58;;;17.00;;
33022;SDS011;19390;51.460;5.710;2023-10-09T10:32:11;23.67;;;16.83;;
33022;SDS011;19390;51.460;5.710;2023-10-09T10:37:15;28.65;;;16.63;;
33022;SDS011;19390;51.460;5.710;2023-10-09T10:39:53;26.33;;;16.25;;
33022;SDS011;19390;51.460;5.710;2023-10-09T10:42:24;24.92;;;17.67;;
33022;SDS011;19390;51.460;5.710;2023-10-09T10:45:02;23.92;;;16.75;;
33022;SDS011;19390;51.460;5.710;2023-10-09T10:47:48;28.55;;;17.65;;
33022;SDS011;19390;51.460;5.710;2023-10-09T10:50:14;27.73;;;17.10;;
33022;SDS011;19390;51.460;5.710;2023-10-09T10:53:07;28.45;;;17.85;;
33022;SDS011;19390;51.460;5.710;2023-10-09T10:55:58;29.60;;;18.85;;
33022;SDS011;19390;51.460;5.710;2023-10-09T10:58:40;27.08;;;16.80;;
33022;SDS011;19390;51.460;5.710;2023-10-09T11:01:24;24.23;;;16.35;;
33022;SDS011;19390;51.460;5.710;2023-10-09T11:04:15;26.15;;;17.10;;
33022;SDS011;19390;51.460;5.710;2023-10-09T11:06:52;25.63;;;17.70;;
33022;SDS011;19390;51.460;5.710;2023-10-09T11:09:25;27.77;;;17.08;;
33022;SDS011;19390;51.460;5.710;2023-10-09T11:12:03;30.17;;;18.55;;
33022;SDS011;19390;51.460;5.710;2023-10-09T11:14:46;29.48;;;18.33;;
33022;SDS011;19390;51.460;5.710;2023-10-09T11:17:33;29.20;;;18.05;;
33022;SDS011;19390;51.460;5.710;2023-10-09T11:20:04;25.40;;;17.63;;
33022;SDS011;19390;51.460;5.710;2023-10-09T11:22:51;30.27;;;17.60;;
33022;SDS011;19390;51.460;5.710;2023-10-09T11:25:39;29.58;;;17.00;;
33022;SDS011;19390;51.460;5.710;2023-10-09T11:28:18;26.98;;;16.80;;
33022;SDS011;19390;51.460;5.710;2023-10-09T11:30:55;27.70;;;16.35;;
33022;SDS011;19390;51.460;5.710;2023-10-09T11:33:42;23.73;;;16.20;;
33022;SDS011;19390;51.460;5.710;2023-10-09T11:36:13;28.35;;;16.10;;
33022;SDS011;19390;51.460;5.710;2023-10-09T11:38:46;26.70;;;16.55;;
33022;SDS011;19390;51.460;5.710;2023-10-09T11:41:17;30.88;;;15.82;;
33022;SDS011;19390;51.460;5.710;2023-10-09T11:43:51;26.05;;;16.70;;
33022;SDS011;19390;51.460;5.710;2023-10-09T11:46:18;28.80;;;16.38;;
33022;SDS011;19390;51.460;5.710;2023-10-09T11:49:06;28.38;;;17.83;;
33022;SDS011;19390;51.460;5.710;2023-10-09T11:52:08;22.52;;;16.65;;
33022;SDS011;19390;51.460;5.710;2023-10-09T11:54:37;29.30;;;16.50;;
33022;SDS011;19390;51.460;5.710;2023-10-09T11:57:02;26.10;;;16.67;;
33022;SDS011;19390;51.460;5.710;2023-10-09T11:59:31;33.40;;;17.88;;
33022;SDS011;19390;51.460;5.710;2023-10-09T12:02:04;26.92;;;17.95;;
33022;SDS011;19390;51.460;5.710;2023-10-09T12:04:39;27.65;;;18.50;;
33022;SDS011;19390;51.460;5.710;2023-10-09T12:07:08;29.52;;;18.13;;
33022;SDS011;19390;51.460;5.710;2023-10-09T12:09:35;33.38;;;19.70;;
33022;SDS011;19390;51.460;5.710;2023-10-09T12:12:03;29.02;;;19.20;;
33022;SDS011;19390;51.460;5.710;2023-10-09T12:14:29;29.60;;;19.65;;
33022;SDS011;19390;51.460;5.710;2023-10-09T12:17:02;29.45;;;19.20;;
33022;SDS011;19390;51.460;5.710;2023-10-09T12:19:33;31.23;;;19.00;;
33022;SDS011;19390;51.460;5.710;2023-10-09T12:22:00;30.92;;;19.65;;
33022;SDS011;19390;51.460;5.710;2023-10-09T12:24:28;29.70;;;19.60;;
33022;SDS011;19390;51.460;5.710;2023-10-09T12:26:55;33.38;;;19.00;;
33022;SDS011;19390;51.460;5.710;2023-10-09T12:29:21;32.25;;;19.70;;
33022;SDS011;19390;51.460;5.710;2023-10-09T12:31:47;32.17;;;18.80;;
33022;SDS011;19390;51.460;5.710;2023-10-09T12:34:13;31.45;;;17.92;;
33022;SDS011;19390;51.460;5.710;2023-10-09T12:36:41;31.48;;;18.77;;
33022;SDS011;19390;51.460;5.710;2023-10-09T12:39:10;31.08;;;19.70;;
33022;SDS011;19390;51.460;5.710;2023-10-09T12:44:09;29.10;;;18.48;;
33022;SDS011;19390;51.460;5.710;2023-10-09T12:46:44;31.35;;;19.25;;
33022;SDS011;19390;51.460;5.710;2023-10-09T12:49:20;28.80;;;17.65;;
33022;SDS011;19390;51.460;5.710;2023-10-09T12:51:50;26.40;;;16.90;;
33022;SDS011;19390;51.460;5.710;2023-10-09T12:54:17;22.75;;;15.20;;
33022;SDS011;19390;51.460;5.710;2023-10-09T12:56:45;22.55;;;15.75;;
33022;SDS011;19390;51.460;5.710;2023-10-09T12:59:13;26.80;;;13.63;;
33022;SDS011;19390;51.460;5.710;2023-10-09T13:01:40;19.95;;;12.60;;
33022;SDS011;19390;51.460;5.710;2023-10-09T13:04:14;18.50;;;12.18;;
33022;SDS011;19390;51.460;5.710;2023-10-09T13:06:44;21.20;;;12.80;;
33022;SDS011;19390;51.460;5.710;2023-10-09T13:09:17;24.60;;;12.65;;
33022;SDS011;19390;51.460;5.710;2023-10-09T13:11:58;22.77;;;11.60;;
33022;SDS011;19390;51.460;5.710;2023-10-09T13:14:28;19.77;;;10.93;;
33022;SDS011;19390;51.460;5.710;2023-10-09T13:16:59;19.30;;;11.27;;
33022;SDS011;19390;51.460;5.710;2023-10-09T13:19:25;19.40;;;10.93;;
33022;SDS011;19390;51.460;5.710;2023-10-09T13:21:50;21.30;;;11.25;;
33022;SDS011;19390;51.460;5.710;2023-10-09T13:24:16;23.58;;;11.27;;
33022;SDS011;19390;51.460;5.710;2023-10-09T13:26:43;25.20;;;11.77;;
33022;SDS011;19390;51.460;5.710;2023-10-09T13:29:16;21.33;;;10.88;;
33022;SDS011;19390;51.460;5.710;2023-10-09T13:31:47;18.85;;;10.60;;
33022;SDS011;19390;51.460;5.710;2023-10-09T13:34:16;14.95;;;10.02;;
33022;SDS011;19390;51.460;5.710;2023-10-09T13:36:42;18.67;;;10.70;;
33022;SDS011;19390;51.460;5.710;2023-10-09T13:39:28;15.68;;;10.43;;
33022;SDS011;19390;51.460;5.710;2023-10-09T13:41:56;19.90;;;10.32;;
33022;SDS011;19390;51.460;5.710;2023-10-09T13:44:29;19.08;;;11.18;;
33022;SDS011;19390;51.460;5.710;2023-10-09T13:46:56;17.30;;;10.40;;
33022;SDS011;19390;51.460;5.710;2023-10-09T13:49:23;20.35;;;9.82;;
33022;SDS011;19390;51.460;5.710;2023-10-09T13:51:54;16.67;;;10.18;;
33022;SDS011;19390;51.460;5.710;2023-10-09T13:54:22;18.48;;;10.35;;
33022;SDS011;19390;51.460;5.710;2023-10-09T13:56:57;18.10;;;9.32;;
33022;SDS011;19390;51.460;5.710;2023-10-09T13:59:23;15.80;;;9.30;;
33022;SDS011;19390;51.460;5.710;2023-10-09T14:01:53;15.43;;;9.27;;
33022;SDS011;19390;51.460;5.710;2023-10-09T14:04:20;14.32;;;8.20;;
33022;SDS011;19390;51.460;5.710;2023-10-09T14:06:48;18.23;;;8.68;;
33022;SDS011;19390;51.460;5.710;2023-10-09T14:09:14;18.67;;;8.55;;
33022;SDS011;19390;51.460;5.710;2023-10-09T14:11:58;12.05;;;7.22;;
33022;SDS011;19390;51.460;5.710;2023-10-09T14:14:35;14.88;;;7.55;;
33022;SDS011;19390;51.460;5.710;2023-10-09T14:17:11;15.45;;;7.95;;
33022;SDS011;19390;51.460;5.710;2023-10-09T14:19:42;15.95;;;7.97;;
33022;SDS011;19390;51.460;5.710;2023-10-09T14:22:18;15.80;;;7.82;;
33022;SDS011;19390;51.460;5.710;2023-10-09T14:24:46;14.60;;;8.02;;
33022;SDS011;19390;51.460;5.710;2023-10-09T14:27:16;14.95;;;7.22;;
33022;SDS011;19390;51.460;5.710;2023-10-09T14:29:45;15.57;;;8.10;;
33022;SDS011;19390;51.460;5.710;2023-10-09T14:32:14;13.93;;;6.78;;
33022;SDS011;19390;51.460;5.710;2023-10-09T14:34:41;20.92;;;7.35;;
33022;SDS011;19390;51.460;5.710;2023-10-09T14:37:16;12.02;;;6.80;;
33022;SDS011;19390;51.460;5.710;2023-10-09T14:39:44;12.77;;;7.75;;
33022;SDS011;19390;51.460;5.710;2023-10-09T14:42:16;14.43;;;7.10;;
33022;SDS011;19390;51.460;5.710;2023-10-09T14:44:43;14.32;;;7.47;;
33022;SDS011;19390;51.460;5.710;2023-10-09T14:47:10;12.30;;;6.75;;
33022;SDS011;19390;51.460;5.710;2023-10-09T14:49:36;18.77;;;7.43;;
33022;SDS011;19390;51.460;5.710;2023-10-09T14:52:08;13.30;;;7.20;;
33022;SDS011;19390;51.460;5.710;2023-10-09T14:54:35;18.08;;;7.80;;
33022;SDS011;19390;51.460;5.710;2023-10-09T14:57:01;15.02;;;6.90;;
33022;SDS011;19390;51.460;5.710;2023-10-09T14:59:34;12.63;;;6.82;;
33022;SDS011;19390;51.460;5.710;2023-10-09T15:02:00;14.90;;;6.97;;
33022;SDS011;19390;51.460;5.710;2023-10-09T15:04:26;12.25;;;6.97;;
33022;SDS011;19390;51.460;5.710;2023-10-09T15:06:52;15.35;;;7.72;;
33022;SDS011;19390;51.460;5.710;2023-10-09T15:09:17;17.38;;;7.22;;
33022;SDS011;19390;51.460;5.710;2023-10-09T15:11:53;10.68;;;5.78;;
33022;SDS011;19390;51.460;5.710;2023-10-09T15:14:20;13.60;;;6.90;;
33022;SDS011;19390;51.460;5.710;2023-10-09T15:16:46;25.38;;;9.43;;
33022;SDS011;19390;51.460;5.710;2023-10-09T15:19:12;26.90;;;10.57;;
33022;SDS011;19390;51.460;5.710;2023-10-09T15:21:41;30.02;;;11.48;;
33022;SDS011;19390;51.460;5.710;2023-10-09T15:24:10;19.17;;;9.07;;
33022;SDS011;19390;51.460;5.710;2023-10-09T15:26:47;15.10;;;7.63;;
33022;SDS011;19390;51.460;5.710;2023-10-09T15:29:20;15.30;;;7.10;;
33022;SDS011;19390;51.460;5.710;2023-10-09T15:31:56;14.02;;;6.40;;